sensor_id;sensor_type;location;lat;lon;timestamp;pressure;altitude;pressure_sealevel;temperature;humidity
72921;BME280;61064;51.654;5.476;2023-05-19T00:01:46;102706.31;;;10.60;61.67
72921;BME280;61064;51.654;5.476;2023-05-19T00:04:13;102708.94;;;10.58;61.66
72921;BME280;61064;51.654;5.476;2023-05-19T00:06:39;102709.06;;;10.61;61.99
72921;BME280;61064;51.654;5.476;2023-05-19T00:09:07;102699.16;;;10.57;62.14
72921;BME280;61064;51.654;5.476;2023-05-19T00:11:34;102711.50;;;10.55;62.42
72921;BME280;61064;51.654;5.476;2023-05-19T00:14:01;102700.75;;;10.52;62.49
72921;BME280;61064;51.654;5.476;2023-05-19T00:16:27;102712.22;;;10.51;62.63
72921;BME280;61064;51.654;5.476;2023-05-19T00:18:53;102701.47;;;10.48;62.72
72921;BME280;61064;51.654;5.476;2023-05-19T00:21:19;102709.41;;;10.47;62.89
72921;BME280;61064;51.654;5.476;2023-05-19T00:23:44;102696.78;;;10.41;62.80
72921;BME280;61064;51.654;5.476;2023-05-19T00:26:10;102697.63;;;10.40;62.99
72921;BME280;61064;51.654;5.476;2023-05-19T00:28:35;102699.28;;;10.36;63.30
72921;BME280;61064;51.654;5.476;2023-05-19T00:31:02;102693.97;;;10.36;63.34
72921;BME280;61064;51.654;5.476;2023-05-19T00:33:28;102687.50;;;10.30;63.61
72921;BME280;61064;51.654;5.476;2023-05-19T00:35:53;102685.63;;;10.27;63.88
72921;BME280;61064;51.654;5.476;2023-05-19T00:38:19;102682.00;;;10.25;63.89
72921;BME280;61064;51.654;5.476;2023-05-19T00:40:44;102689.09;;;10.25;64.20
72921;BME280;61064;51.654;5.476;2023-05-19T00:43:10;102676.50;;;10.21;64.13
72921;BME280;61064;51.654;5.476;2023-05-19T00:45:35;102676.34;;;10.16;64.40
72921;BME280;61064;51.654;5.476;2023-05-19T00:48:00;102676.06;;;10.10;64.19
72921;BME280;61064;51.654;5.476;2023-05-19T00:50:26;102677.72;;;10.07;64.70
72921;BME280;61064;51.654;5.476;2023-05-19T00:52:55;102671.38;;;10.03;64.83
72921;BME280;61064;51.654;5.476;2023-05-19T00:55:27;102676.66;;;10.01;65.04
72921;BME280;61064;51.654;5.476;2023-05-19T00:57:54;102683.78;;;10.02;65.41
72921;BME280;61064;51.654;5.476;2023-05-19T01:00:20;102675.75;;;10.01;65.03
72921;BME280;61064;51.654;5.476;2023-05-19T01:02:46;102685.47;;;10.00;65.34
72921;BME280;61064;51.654;5.476;2023-05-19T01:05:12;102680.00;;;9.97;65.34
72921;BME280;61064;51.654;5.476;2023-05-19T01:07:39;102679.16;;;9.98;65.43
72921;BME280;61064;51.654;5.476;2023-05-19T01:10:05;102680.88;;;9.96;65.45
72921;BME280;61064;51.654;5.476;2023-05-19T01:12:31;102677.25;;;9.94;65.47
72921;BME280;61064;51.654;5.476;2023-05-19T01:14:57;102680.88;;;9.96;65.59
72921;BME280;61064;51.654;5.476;2023-05-19T01:17:31;102684.31;;;9.94;65.69
72921;BME280;61064;51.654;5.476;2023-05-19T01:20:26;102679.75;;;9.90;65.71
72921;BME280;61064;51.654;5.476;2023-05-19T01:30:54;102667.72;;;9.77;66.06
72921;BME280;61064;51.654;5.476;2023-05-19T01:33:21;102672.03;;;9.74;66.19
72921;BME280;61064;51.654;5.476;2023-05-19T01:35:48;102669.22;;;9.71;66.20
72921;BME280;61064;51.654;5.476;2023-05-19T01:38:16;102676.44;;;9.73;66.16
72921;BME280;61064;51.654;5.476;2023-05-19T01:40:43;102668.28;;;9.69;66.39
72921;BME280;61064;51.654;5.476;2023-05-19T01:43:13;102689.59;;;9.70;66.98
72921;BME280;61064;51.654;5.476;2023-05-19T01:45:39;102679.81;;;9.69;66.58
72921;BME280;61064;51.654;5.476;2023-05-19T01:48:05;102669.06;;;9.66;66.71
72921;BME280;61064;51.654;5.476;2023-05-19T01:50:30;102673.47;;;9.66;66.89
72921;BME280;61064;51.654;5.476;2023-05-19T01:52:57;102667.06;;;9.60;66.90
72921;BME280;61064;51.654;5.476;2023-05-19T01:55:22;102664.41;;;9.60;66.91
72921;BME280;61064;51.654;5.476;2023-05-19T01:58:08;102661.69;;;9.59;67.23
72921;BME280;61064;51.654;5.476;2023-05-19T02:06:45;102660.31;;;9.46;67.32
72921;BME280;61064;51.654;5.476;2023-05-19T02:11:51;102663.56;;;9.39;67.45
72921;BME280;61064;51.654;5.476;2023-05-19T02:14:20;102665.19;;;9.36;67.49
72921;BME280;61064;51.654;5.476;2023-05-19T02:16:49;102665.13;;;9.34;67.59
72921;BME280;61064;51.654;5.476;2023-05-19T02:19:28;102666.81;;;9.32;67.81
72921;BME280;61064;51.654;5.476;2023-05-19T02:21:54;102651.59;;;9.28;67.86
72921;BME280;61064;51.654;5.476;2023-05-19T02:24:20;102651.59;;;9.28;68.10
72921;BME280;61064;51.654;5.476;2023-05-19T02:26:47;102657.88;;;9.30;67.96
72921;BME280;61064;51.654;5.476;2023-05-19T02:29:13;102662.28;;;9.30;68.07
72921;BME280;61064;51.654;5.476;2023-05-19T02:31:38;102656.75;;;9.25;68.20
72921;BME280;61064;51.654;5.476;2023-05-19T02:34:04;102651.41;;;9.24;68.26
72921;BME280;61064;51.654;5.476;2023-05-19T02:36:33;102648.75;;;9.24;68.50
72921;BME280;61064;51.654;5.476;2023-05-19T02:39:04;102644.28;;;9.23;68.34
72921;BME280;61064;51.654;5.476;2023-05-19T02:41:29;102640.53;;;9.17;68.51
72921;BME280;61064;51.654;5.476;2023-05-19T02:43:55;102636.19;;;9.19;68.57
72921;BME280;61064;51.654;5.476;2023-05-19T02:46:20;102644.03;;;9.16;68.68
72921;BME280;61064;51.654;5.476;2023-05-19T02:48:45;102641.38;;;9.16;68.68
72921;BME280;61064;51.654;5.476;2023-05-19T02:51:11;102640.47;;;9.16;68.70
72921;BME280;61064;51.654;5.476;2023-05-19T02:53:36;102643.06;;;9.14;68.80
72921;BME280;61064;51.654;5.476;2023-05-19T02:56:01;102633.16;;;9.10;68.99
72921;BME280;61064;51.654;5.476;2023-05-19T02:58:27;102634.84;;;9.08;68.78
72921;BME280;61064;51.654;5.476;2023-05-19T03:00:52;102634.72;;;9.05;69.15
72921;BME280;61064;51.654;5.476;2023-05-19T03:03:17;102645.22;;;9.02;69.28
72921;BME280;61064;51.654;5.476;2023-05-19T03:05:43;102638.03;;;9.00;69.40
72921;BME280;61064;51.654;5.476;2023-05-19T03:08:09;102643.28;;;8.98;69.75
72921;BME280;61064;51.654;5.476;2023-05-19T03:10:35;102638.75;;;8.96;69.44
72921;BME280;61064;51.654;5.476;2023-05-19T03:13:00;102628.13;;;8.96;69.63
72921;BME280;61064;51.654;5.476;2023-05-19T03:15:25;102633.31;;;8.93;69.70
72921;BME280;61064;51.654;5.476;2023-05-19T03:17:51;102637.69;;;8.92;70.00
72921;BME280;61064;51.654;5.476;2023-05-19T03:20:16;102635.94;;;8.93;70.01
72921;BME280;61064;51.654;5.476;2023-05-19T03:22:42;102635.91;;;8.91;70.07
72921;BME280;61064;51.654;5.476;2023-05-19T03:25:08;102633.25;;;8.91;69.97
72921;BME280;61064;51.654;5.476;2023-05-19T03:27:33;102639.41;;;8.90;70.33
72921;BME280;61064;51.654;5.476;2023-05-19T03:29:58;102641.16;;;8.90;70.20
72921;BME280;61064;51.654;5.476;2023-05-19T03:32:24;102645.47;;;8.88;70.23
72921;BME280;61064;51.654;5.476;2023-05-19T03:34:49;102634.75;;;8.85;70.20
72921;BME280;61064;51.654;5.476;2023-05-19T03:37:15;102643.63;;;8.85;70.28
72921;BME280;61064;51.654;5.476;2023-05-19T03:39:40;102643.63;;;8.85;70.20
72921;BME280;61064;51.654;5.476;2023-05-19T03:42:06;102646.28;;;8.85;70.46
72921;BME280;61064;51.654;5.476;2023-05-19T03:44:31;102643.47;;;8.82;70.47
72921;BME280;61064;51.654;5.476;2023-05-19T03:46:56;102653.19;;;8.82;70.38
72921;BME280;61064;51.654;5.476;2023-05-19T03:49:22;102653.06;;;8.79;70.64
72921;BME280;61064;51.654;5.476;2023-05-19T03:51:47;102652.22;;;8.80;70.59
72921;BME280;61064;51.654;5.476;2023-05-19T03:54:12;102648.50;;;8.76;70.52
72921;BME280;61064;51.654;5.476;2023-05-19T03:56:38;102654.66;;;8.75;70.88
72921;BME280;61064;51.654;5.476;2023-05-19T03:59:04;102653.00;;;8.77;70.86
72921;BME280;61064;51.654;5.476;2023-05-19T04:01:32;102644.00;;;8.73;70.90
72921;BME280;61064;51.654;5.476;2023-05-19T04:03:57;102657.19;;;8.72;70.91
72921;BME280;61064;51.654;5.476;2023-05-19T04:06:23;102648.13;;;8.67;71.18
72921;BME280;61064;51.654;5.476;2023-05-19T04:08:48;102650.78;;;8.67;71.32
72921;BME280;61064;51.654;5.476;2023-05-19T04:11:14;102651.69;;;8.67;71.38
72921;BME280;61064;51.654;5.476;2023-05-19T04:13:39;102643.41;;;8.60;71.38
72921;BME280;61064;51.654;5.476;2023-05-19T04:16:08;102648.63;;;8.58;71.59
72921;BME280;61064;51.654;5.476;2023-05-19T04:18:33;102651.34;;;8.60;71.79
72921;BME280;61064;51.654;5.476;2023-05-19T04:20:59;102651.28;;;8.58;71.74
72921;BME280;61064;51.654;5.476;2023-05-19T04:23:24;102648.63;;;8.58;72.07
72921;BME280;61064;51.654;5.476;2023-05-19T04:25:49;102646.84;;;8.57;72.13
72921;BME280;61064;51.654;5.476;2023-05-19T04:28:15;102650.53;;;8.61;72.30
72921;BME280;61064;51.654;5.476;2023-05-19T04:30:41;102648.72;;;8.60;72.11
72921;BME280;61064;51.654;5.476;2023-05-19T04:33:07;102661.13;;;8.61;72.33
72921;BME280;61064;51.654;5.476;2023-05-19T04:35:35;102652.28;;;8.60;72.55
72921;BME280;61064;51.654;5.476;2023-05-19T04:38:02;102654.16;;;8.63;72.40
72921;BME280;61064;51.654;5.476;2023-05-19T04:40:27;102649.75;;;8.63;72.49
72921;BME280;61064;51.654;5.476;2023-05-19T04:42:55;102655.13;;;8.65;72.60
72921;BME280;61064;51.654;5.476;2023-05-19T04:45:21;102648.72;;;8.60;72.47
72921;BME280;61064;51.654;5.476;2023-05-19T04:47:47;102653.28;;;8.64;73.06
72921;BME280;61064;51.654;5.476;2023-05-19T04:50:13;102649.75;;;8.63;72.95
72921;BME280;61064;51.654;5.476;2023-05-19T04:52:40;102662.38;;;8.69;73.16
72921;BME280;61064;51.654;5.476;2023-05-19T04:55:06;102656.22;;;8.70;73.41
72921;BME280;61064;51.654;5.476;2023-05-19T04:57:32;102652.88;;;8.74;73.41
72921;BME280;61064;51.654;5.476;2023-05-19T04:59:58;102650.25;;;8.75;73.59
72921;BME280;61064;51.654;5.476;2023-05-19T05:02:26;102650.34;;;8.77;73.61
72921;BME280;61064;51.654;5.476;2023-05-19T05:04:52;102655.84;;;8.82;73.44
72921;BME280;61064;51.654;5.476;2023-05-19T05:07:19;102659.53;;;8.85;73.60
72921;BME280;61064;51.654;5.476;2023-05-19T05:09:46;102654.34;;;8.88;73.52
72921;BME280;61064;51.654;5.476;2023-05-19T05:12:13;102660.91;;;8.96;73.63
72921;BME280;61064;51.654;5.476;2023-05-19T05:14:39;102662.84;;;9.00;73.81
72921;BME280;61064;51.654;5.476;2023-05-19T05:17:04;102663.09;;;9.06;73.54
72921;BME280;61064;51.654;5.476;2023-05-19T05:19:31;102656.22;;;9.11;73.75
72921;BME280;61064;51.654;5.476;2023-05-19T05:21:58;102657.25;;;9.15;73.94
72921;BME280;61064;51.654;5.476;2023-05-19T05:24:23;102666.50;;;9.25;73.65
72921;BME280;61064;51.654;5.476;2023-05-19T05:26:49;102658.66;;;9.28;73.74
72921;BME280;61064;51.654;5.476;2023-05-19T05:29:14;102672.38;;;9.38;73.74
72921;BME280;61064;51.654;5.476;2023-05-19T05:31:40;102658.50;;;9.45;73.69
72921;BME280;61064;51.654;5.476;2023-05-19T05:34:05;102661.56;;;9.56;73.65
72921;BME280;61064;51.654;5.476;2023-05-19T05:36:31;102663.97;;;9.72;73.46
72921;BME280;61064;51.654;5.476;2023-05-19T05:38:56;102669.03;;;9.88;73.31
72921;BME280;61064;51.654;5.476;2023-05-19T05:41:23;102666.94;;;10.03;73.27
72921;BME280;61064;51.654;5.476;2023-05-19T05:43:49;102657.84;;;10.19;73.18
72921;BME280;61064;51.654;5.476;2023-05-19T05:46:15;102665.56;;;10.37;72.83
72921;BME280;61064;51.654;5.476;2023-05-19T05:48:41;102652.56;;;10.45;72.67
72921;BME280;61064;51.654;5.476;2023-05-19T05:51:07;102658.38;;;10.58;72.65
72921;BME280;61064;51.654;5.476;2023-05-19T05:53:36;102662.53;;;10.75;72.64
72921;BME280;61064;51.654;5.476;2023-05-19T05:56:04;102660.47;;;10.94;72.44
72921;BME280;61064;51.654;5.476;2023-05-19T05:58:30;102656.63;;;11.11;72.26
72921;BME280;61064;51.654;5.476;2023-05-19T06:00:56;102648.28;;;11.27;71.91
72921;BME280;61064;51.654;5.476;2023-05-19T06:03:22;102661.28;;;11.45;71.43
72921;BME280;61064;51.654;5.476;2023-05-19T06:05:48;102646.66;;;11.59;71.28
72921;BME280;61064;51.654;5.476;2023-05-19T06:08:13;102646.03;;;11.67;70.94
72921;BME280;61064;51.654;5.476;2023-05-19T06:10:39;102658.75;;;11.76;70.69
72921;BME280;61064;51.654;5.476;2023-05-19T06:13:05;102658.03;;;11.82;70.40
72921;BME280;61064;51.654;5.476;2023-05-19T06:15:31;102656.44;;;11.87;70.44
72921;BME280;61064;51.654;5.476;2023-05-19T06:17:56;102656.47;;;11.88;70.24
72921;BME280;61064;51.654;5.476;2023-05-19T06:20:22;102657.50;;;11.93;70.25
72921;BME280;61064;51.654;5.476;2023-05-19T06:22:48;102664.03;;;12.03;70.36
72921;BME280;61064;51.654;5.476;2023-05-19T06:25:13;102658.94;;;12.12;70.35
72921;BME280;61064;51.654;5.476;2023-05-19T06:27:38;102661.03;;;12.22;69.81
72921;BME280;61064;51.654;5.476;2023-05-19T06:30:04;102655.81;;;12.27;69.55
72921;BME280;61064;51.654;5.476;2023-05-19T06:32:32;102651.66;;;12.36;69.49
72921;BME280;61064;51.654;5.476;2023-05-19T06:34:57;102663.44;;;12.44;69.15
72921;BME280;61064;51.654;5.476;2023-05-19T06:37:23;102656.56;;;12.54;69.51
72921;BME280;61064;51.654;5.476;2023-05-19T06:39:51;102658.72;;;12.67;68.95
72921;BME280;61064;51.654;5.476;2023-05-19T06:42:20;102658.94;;;12.75;69.23
72921;BME280;61064;51.654;5.476;2023-05-19T06:44:48;102665.63;;;12.92;68.78
72921;BME280;61064;51.654;5.476;2023-05-19T06:47:13;102658.94;;;13.09;68.48
72921;BME280;61064;51.654;5.476;2023-05-19T06:49:39;102666.56;;;13.28;68.31
72921;BME280;61064;51.654;5.476;2023-05-19T06:52:04;102660.75;;;13.46;67.79
72921;BME280;61064;51.654;5.476;2023-05-19T06:54:30;102647.53;;;13.52;67.49
72921;BME280;61064;51.654;5.476;2023-05-19T06:56:55;102646.91;;;13.64;67.48
72921;BME280;61064;51.654;5.476;2023-05-19T06:59:20;102653.47;;;13.78;67.10
72921;BME280;61064;51.654;5.476;2023-05-19T07:01:47;102650.19;;;13.91;66.86
72921;BME280;61064;51.654;5.476;2023-05-19T07:04:12;102646.00;;;14.04;66.70
72921;BME280;61064;51.654;5.476;2023-05-19T07:06:38;102652.50;;;14.16;66.26
72921;BME280;61064;51.654;5.476;2023-05-19T07:09:03;102651.81;;;14.25;66.21
72921;BME280;61064;51.654;5.476;2023-05-19T07:11:29;102654.78;;;14.37;65.82
72921;BME280;61064;51.654;5.476;2023-05-19T07:13:55;102659.47;;;14.50;65.81
72921;BME280;61064;51.654;5.476;2023-05-19T07:16:20;102645.44;;;14.64;65.30
72921;BME280;61064;51.654;5.476;2023-05-19T07:18:46;102651.00;;;14.74;65.28
72921;BME280;61064;51.654;5.476;2023-05-19T07:21:11;102644.16;;;14.91;65.07
72921;BME280;61064;51.654;5.476;2023-05-19T07:23:36;102655.19;;;15.11;64.45
72921;BME280;61064;51.654;5.476;2023-05-19T07:26:01;102650.00;;;15.22;63.86
72921;BME280;61064;51.654;5.476;2023-05-19T07:28:27;102660.06;;;15.35;63.68
72921;BME280;61064;51.654;5.476;2023-05-19T07:30:52;102643.22;;;15.45;63.29
72921;BME280;61064;51.654;5.476;2023-05-19T07:33:18;102636.25;;;15.53;63.08
72921;BME280;61064;51.654;5.476;2023-05-19T07:35:43;102651.66;;;15.68;62.88
72921;BME280;61064;51.654;5.476;2023-05-19T07:38:09;102642.94;;;15.84;62.63
72921;BME280;61064;51.654;5.476;2023-05-19T07:40:35;102637.78;;;16.01;62.14
72921;BME280;61064;51.654;5.476;2023-05-19T07:43:00;102638.00;;;16.16;61.93
72921;BME280;61064;51.654;5.476;2023-05-19T07:45:25;102636.41;;;16.35;61.51
72921;BME280;61064;51.654;5.476;2023-05-19T07:47:52;102633.91;;;16.51;61.56
72921;BME280;61064;51.654;5.476;2023-05-19T07:50:18;102630.59;;;16.75;60.66
72921;BME280;61064;51.654;5.476;2023-05-19T07:52:43;102629.84;;;16.90;59.89
72921;BME280;61064;51.654;5.476;2023-05-19T07:55:08;102630.84;;;17.02;59.51
72921;BME280;61064;51.654;5.476;2023-05-19T07:57:34;102633.63;;;17.13;59.03
72921;BME280;61064;51.654;5.476;2023-05-19T07:59:59;102627.44;;;17.25;58.41
72921;BME280;61064;51.654;5.476;2023-05-19T08:02:25;102629.34;;;17.38;57.49
72921;BME280;61064;51.654;5.476;2023-05-19T08:04:50;102620.41;;;17.46;57.30
72921;BME280;61064;51.654;5.476;2023-05-19T08:07:17;102624.97;;;17.58;57.19
72921;BME280;61064;51.654;5.476;2023-05-19T08:09:42;102620.56;;;17.68;57.08
72921;BME280;61064;51.654;5.476;2023-05-19T08:12:07;102618.88;;;17.85;56.98
72921;BME280;61064;51.654;5.476;2023-05-19T08:14:33;102619.88;;;18.08;56.41
72921;BME280;61064;51.654;5.476;2023-05-19T08:16:59;102603.75;;;18.20;55.84
72921;BME280;61064;51.654;5.476;2023-05-19T08:19:36;102601.97;;;18.25;55.40
72921;BME280;61064;51.654;5.476;2023-05-19T08:22:08;102604.69;;;18.33;55.04
72921;BME280;61064;51.654;5.476;2023-05-19T08:24:33;102598.41;;;18.48;54.37
72921;BME280;61064;51.654;5.476;2023-05-19T08:26:58;102607.44;;;18.62;53.49
72921;BME280;61064;51.654;5.476;2023-05-19T08:29:24;102604.75;;;18.63;53.26
72921;BME280;61064;51.654;5.476;2023-05-19T08:31:50;102593.09;;;18.72;52.92
72921;BME280;61064;51.654;5.476;2023-05-19T08:34:17;102593.09;;;18.75;52.40
72921;BME280;61064;51.654;5.476;2023-05-19T08:36:46;102594.91;;;18.82;52.41
72921;BME280;61064;51.654;5.476;2023-05-19T08:39:11;102585.00;;;18.93;52.01
72921;BME280;61064;51.654;5.476;2023-05-19T08:41:38;102577.81;;;19.04;51.67
72921;BME280;61064;51.654;5.476;2023-05-19T08:44:04;102578.72;;;19.11;51.29
72921;BME280;61064;51.654;5.476;2023-05-19T08:46:29;102574.19;;;19.13;50.93
72921;BME280;61064;51.654;5.476;2023-05-19T08:49:04;102576.91;;;19.16;50.46
72921;BME280;61064;51.654;5.476;2023-05-19T08:54:24;102577.78;;;19.15;50.54
72921;BME280;61064;51.654;5.476;2023-05-19T08:56:54;102574.16;;;19.24;50.16
72921;BME280;61064;51.654;5.476;2023-05-19T08:59:21;102560.69;;;19.33;49.67
72921;BME280;61064;51.654;5.476;2023-05-19T09:01:47;102562.44;;;19.43;49.78
72921;BME280;61064;51.654;5.476;2023-05-19T09:04:19;102565.97;;;19.69;49.81
72921;BME280;61064;51.654;5.476;2023-05-19T09:06:45;102545.22;;;19.80;48.70
72921;BME280;61064;51.654;5.476;2023-05-19T09:09:10;102556.91;;;19.85;48.22
72921;BME280;61064;51.654;5.476;2023-05-19T09:11:36;102564.09;;;19.94;48.21
72921;BME280;61064;51.654;5.476;2023-05-19T09:14:03;102564.00;;;20.08;47.62
72921;BME280;61064;51.654;5.476;2023-05-19T09:16:29;102563.06;;;20.16;46.95
72921;BME280;61064;51.654;5.476;2023-05-19T09:18:55;102552.25;;;20.12;46.55
72921;BME280;61064;51.654;5.476;2023-05-19T09:21:29;102545.97;;;20.10;46.43
72921;BME280;61064;51.654;5.476;2023-05-19T09:23:55;102542.38;;;20.08;46.35
72921;BME280;61064;51.654;5.476;2023-05-19T09:26:22;102544.22;;;20.06;46.54
72921;BME280;61064;51.654;5.476;2023-05-19T09:28:47;102543.25;;;20.14;46.10
72921;BME280;61064;51.654;5.476;2023-05-19T09:31:13;102538.66;;;20.24;45.59
72921;BME280;61064;51.654;5.476;2023-05-19T09:33:40;102541.28;;;20.41;45.14
72921;BME280;61064;51.654;5.476;2023-05-19T09:36:07;102539.41;;;20.55;44.39
72921;BME280;61064;51.654;5.476;2023-05-19T09:38:42;102541.06;;;20.68;44.16
72921;BME280;61064;51.654;5.476;2023-05-19T09:41:07;102526.66;;;20.70;43.91
72921;BME280;61064;51.654;5.476;2023-05-19T09:43:33;102544.53;;;20.87;43.63
72921;BME280;61064;51.654;5.476;2023-05-19T09:46:03;102539.03;;;20.96;43.00
72921;BME280;61064;51.654;5.476;2023-05-19T09:48:28;102540.81;;;20.98;42.49
72921;BME280;61064;51.654;5.476;2023-05-19T09:50:55;102552.50;;;21.02;42.26
72921;BME280;61064;51.654;5.476;2023-05-19T09:53:45;102537.09;;;21.07;42.57
72921;BME280;61064;51.654;5.476;2023-05-19T09:56:10;102538.88;;;21.17;42.34
72921;BME280;61064;51.654;5.476;2023-05-19T09:58:40;102534.31;;;21.22;41.47
72921;BME280;61064;51.654;5.476;2023-05-19T10:01:09;102538.75;;;21.26;41.50
72921;BME280;61064;51.654;5.476;2023-05-19T10:03:35;102533.34;;;21.25;41.76
72921;BME280;61064;51.654;5.476;2023-05-19T10:06:03;102535.06;;;21.33;41.64
72921;BME280;61064;51.654;5.476;2023-05-19T10:08:30;102543.94;;;21.47;41.46
72921;BME280;61064;51.654;5.476;2023-05-19T10:10:57;102526.63;;;21.61;41.34
72921;BME280;61064;51.654;5.476;2023-05-19T10:13:23;102521.91;;;21.76;40.74
72921;BME280;61064;51.654;5.476;2023-05-19T10:15:49;102531.63;;;21.95;40.89
72921;BME280;61064;51.654;5.476;2023-05-19T10:18:16;102529.53;;;22.14;40.62
72921;BME280;61064;51.654;5.476;2023-05-19T10:20:43;102532.97;;;22.24;40.10
72921;BME280;61064;51.654;5.476;2023-05-19T10:23:08;102530.34;;;22.19;39.44
72921;BME280;61064;51.654;5.476;2023-05-19T10:25:34;102516.88;;;22.13;39.76
72921;BME280;61064;51.654;5.476;2023-05-19T10:28:12;102517.69;;;22.20;39.62
72921;BME280;61064;51.654;5.476;2023-05-19T10:30:42;102528.34;;;22.33;39.26
72921;BME280;61064;51.654;5.476;2023-05-19T10:33:11;102524.56;;;22.42;38.68
72921;BME280;61064;51.654;5.476;2023-05-19T10:46:58;102497.78;;;22.21;39.45
72921;BME280;61064;51.654;5.476;2023-05-19T10:49:23;102510.28;;;22.32;39.23
72921;BME280;61064;51.654;5.476;2023-05-19T10:51:51;102511.16;;;22.33;39.03
72921;BME280;61064;51.654;5.476;2023-05-19T10:54:39;102499.69;;;22.16;38.67
72921;BME280;61064;51.654;5.476;2023-05-19T10:57:13;102492.69;;;22.00;38.82
72921;BME280;61064;51.654;5.476;2023-05-19T10:59:42;102504.56;;;21.89;39.35
72921;BME280;61064;51.654;5.476;2023-05-19T11:02:43;102505.50;;;21.85;39.46
72921;BME280;61064;51.654;5.476;2023-05-19T11:05:13;102491.81;;;21.97;39.50
72921;BME280;61064;51.654;5.476;2023-05-19T11:07:53;102492.28;;;22.25;39.66
72921;BME280;61064;51.654;5.476;2023-05-19T11:10:24;102480.97;;;22.54;39.22
72921;BME280;61064;51.654;5.476;2023-05-19T11:12:51;102489.66;;;22.76;38.78
72921;BME280;61064;51.654;5.476;2023-05-19T11:15:17;102487.94;;;22.69;38.51
72921;BME280;61064;51.654;5.476;2023-05-19T11:17:47;102495.47;;;22.52;38.54
72921;BME280;61064;51.654;5.476;2023-05-19T11:20:25;102498.28;;;22.47;39.08
72921;BME280;61064;51.654;5.476;2023-05-19T11:25:47;102496.25;;;22.60;37.87
72921;BME280;61064;51.654;5.476;2023-05-19T11:28:21;102485.66;;;22.45;37.51
72921;BME280;61064;51.654;5.476;2023-05-19T11:30:57;102479.28;;;22.47;37.70
72921;BME280;61064;51.654;5.476;2023-05-19T11:33:26;102477.44;;;22.49;38.04
72921;BME280;61064;51.654;5.476;2023-05-19T11:35:53;102487.13;;;22.64;37.92
72921;BME280;61064;51.654;5.476;2023-05-19T11:38:22;102479.81;;;22.69;37.99
72921;BME280;61064;51.654;5.476;2023-05-19T11:40:48;102480.59;;;22.78;37.16
72921;BME280;61064;51.654;5.476;2023-05-19T11:43:16;102482.34;;;22.81;36.89
72921;BME280;61064;51.654;5.476;2023-05-19T11:45:42;102472.47;;;22.77;37.12
72921;BME280;61064;51.654;5.476;2023-05-19T11:48:12;102466.03;;;22.83;36.13
72921;BME280;61064;51.654;5.476;2023-05-19T11:50:41;102474.84;;;22.95;36.21
72921;BME280;61064;51.654;5.476;2023-05-19T11:53:10;102465.84;;;22.92;36.12
72921;BME280;61064;51.654;5.476;2023-05-19T11:55:44;102462.31;;;22.88;36.38
72921;BME280;61064;51.654;5.476;2023-05-19T11:58:13;102467.53;;;22.99;35.82
72921;BME280;61064;51.654;5.476;2023-05-19T12:00:40;102463.00;;;22.98;35.81
72921;BME280;61064;51.654;5.476;2023-05-19T12:03:06;102453.19;;;22.91;36.28
72921;BME280;61064;51.654;5.476;2023-05-19T12:05:40;102438.66;;;22.95;36.67
72921;BME280;61064;51.654;5.476;2023-05-19T12:08:05;102454.72;;;23.05;36.55
72921;BME280;61064;51.654;5.476;2023-05-19T12:10:34;102450.09;;;23.12;36.37
72921;BME280;61064;51.654;5.476;2023-05-19T12:13:00;102433.63;;;23.19;36.38
72921;BME280;61064;51.654;5.476;2023-05-19T12:15:30;102439.63;;;23.35;36.48
72921;BME280;61064;51.654;5.476;2023-05-19T12:17:59;102449.97;;;23.61;36.04
72921;BME280;61064;51.654;5.476;2023-05-19T12:20:36;102451.47;;;23.74;35.78
72921;BME280;61064;51.654;5.476;2023-05-19T12:23:02;102430.69;;;23.73;35.85
72921;BME280;61064;51.654;5.476;2023-05-19T12:25:29;102442.19;;;23.84;35.67
72921;BME280;61064;51.654;5.476;2023-05-19T12:27:59;102449.06;;;24.00;35.79
72921;BME280;61064;51.654;5.476;2023-05-19T12:30:36;102435.41;;;24.02;35.49
72921;BME280;61064;51.654;5.476;2023-05-19T12:33:02;102441.53;;;24.12;35.46
72921;BME280;61064;51.654;5.476;2023-05-19T12:35:29;102446.78;;;24.21;35.47
72921;BME280;61064;51.654;5.476;2023-05-19T12:38:05;102432.94;;;24.30;35.11
72921;BME280;61064;51.654;5.476;2023-05-19T12:40:35;102430.38;;;24.24;34.91
72921;BME280;61064;51.654;5.476;2023-05-19T12:43:02;102443.91;;;24.27;35.13
72921;BME280;61064;51.654;5.476;2023-05-19T12:45:33;102431.50;;;24.14;35.18
72921;BME280;61064;51.654;5.476;2023-05-19T12:48:01;102434.28;;;24.12;35.41
72921;BME280;61064;51.654;5.476;2023-05-19T12:50:30;102433.56;;;24.02;34.97
72921;BME280;61064;51.654;5.476;2023-05-19T12:52:56;102430.13;;;23.96;35.67
72921;BME280;61064;51.654;5.476;2023-05-19T12:55:23;102419.00;;;24.07;35.78
72921;BME280;61064;51.654;5.476;2023-05-19T12:57:50;102423.94;;;24.28;35.65
72921;BME280;61064;51.654;5.476;2023-05-19T13:00:21;102428.97;;;24.43;35.63
72921;BME280;61064;51.654;5.476;2023-05-19T13:05:23;102404.00;;;24.61;35.17
72921;BME280;61064;51.654;5.476;2023-05-19T13:08:10;102410.09;;;24.69;35.06
72921;BME280;61064;51.654;5.476;2023-05-19T13:10:38;102406.47;;;24.70;34.38
72921;BME280;61064;51.654;5.476;2023-05-19T13:13:07;102400.53;;;24.55;34.14
72921;BME280;61064;51.654;5.476;2023-05-19T13:15:35;102402.69;;;24.42;34.18
72921;BME280;61064;51.654;5.476;2023-05-19T13:18:03;102394.78;;;24.33;34.09
72921;BME280;61064;51.654;5.476;2023-05-19T13:20:30;102401.28;;;24.27;33.75
72921;BME280;61064;51.654;5.476;2023-05-19T13:22:56;102397.69;;;24.25;34.10
72921;BME280;61064;51.654;5.476;2023-05-19T13:25:21;102393.97;;;24.29;34.36
72921;BME280;61064;51.654;5.476;2023-05-19T13:27:47;102392.81;;;24.38;34.08
72921;BME280;61064;51.654;5.476;2023-05-19T13:30:13;102388.13;;;24.44;33.76